Time;durP1;ratioP1;P1;durP2;ratioP2;P2;SDS_P1;SDS_P2;PMS_P1;PMS_P2;Temp;Humidity;BMP_temperature;BMP_pressure;BME280_temperature;BME280_humidity;BME280_pressure;Samples;Min_cycle;Max_cycle;Signal;HPM_P1;HPM_P2
2023/08/02 00:01:13;;;;;;;8.85;3.65;;;;;;;29.91;63.26;100731.09;5059221;28;70543;-42
2023/08/02 00:04:03;;;;;;;12.57;3.90;;;;;;;29.99;67.10;100740.81;5056439;28;67325;-42
2023/08/02 00:06:59;;;;;;;5.22;4.18;;;;;;;30.05;67.42;100743.47;5054712;28;69638;-45
2023/08/02 00:09:49;;;;;;;14.43;5.30;;;;;;;30.08;74.55;100739.50;5060060;28;67403;-46
2023/08/02 00:12:39;;;;;;;16.38;6.20;;;;;;;30.16;71.68;100738.44;5057392;28;71292;-44
2023/08/02 00:15:29;;;;;;;10.30;6.45;;;;;;;30.16;75.30;100743.84;5056357;28;67426;-42
2023/08/02 00:18:19;;;;;;;20.45;7.30;;;;;;;30.15;77.97;100743.00;5059512;28;71228;-42
2023/08/02 00:21:09;;;;;;;17.85;6.93;;;;;;;30.25;76.80;100753.38;5055596;28;67296;-43
2023/08/02 00:24:00;;;;;;;16.20;8.48;;;;;;;30.40;72.27;100753.91;5055518;28;70995;-42
2023/08/02 00:26:50;;;;;;;11.93;7.40;;;;;;;30.44;70.72;100748.88;5059332;28;67065;-42
2023/08/02 00:29:40;;;;;;;15.45;7.15;;;;;;;30.50;69.62;100756.09;5058424;28;71111;-43
2023/08/02 00:32:30;;;;;;;38.30;10.57;;;;;;;30.45;78.08;100761.34;5060386;28;66409;-42
2023/08/02 00:35:20;;;;;;;60.83;12.90;;;;;;;30.47;78.38;100770.06;5057719;28;70153;-42
2023/08/02 00:38:11;;;;;;;77.22;13.40;;;;;;;30.41;78.83;100760.94;5053472;28;67619;-43
2023/08/02 00:41:06;;;;;;;79.07;14.85;;;;;;;30.50;78.78;100773.16;5055357;28;71146;-42
2023/08/02 00:44:11;;;;;;;118.03;18.15;;;;;;;30.48;79.23;100777.16;5059983;28;66762;-42
2023/08/02 00:47:01;;;;;;;141.52;23.45;;;;;;;30.58;78.85;100796.44;5049664;28;70653;-43
2023/08/02 00:49:52;;;;;;;203.75;27.08;;;;;;;30.57;78.91;100796.66;5053337;28;65530;-41
2023/08/02 00:52:42;;;;;;;204.10;27.33;;;;;;;30.68;74.11;100794.06;5058552;28;71167;-38
2023/08/02 00:55:33;;;;;;;210.18;23.25;;;;;;;30.67;72.88;100789.72;5059686;28;67133;-38
2023/08/02 00:58:24;;;;;;;177.95;21.92;;;;;;;30.79;72.08;100807.94;5057047;28;70556;-39
2023/08/02 01:01:15;;;;;;;180.63;21.73;;;;;;;30.78;71.79;100795.44;5053178;28;67274;-38
2023/08/02 01:04:06;;;;;;;130.18;17.67;;;;;;;30.77;71.19;100793.78;5057118;28;70968;-38
2023/08/02 01:07:28;;;;;;;139.63;18.80;;;;;;;30.77;71.70;100815.44;5055829;28;66393;-38
2023/08/02 01:10:19;;;;;;;133.77;17.83;;;;;;;30.88;70.63;100812.03;5055547;28;71232;-38
2023/08/02 01:13:14;;;;;;;103.85;16.00;;;;;;;30.94;70.56;100811.16;5052742;28;66618;-37
2023/08/02 01:16:05;;;;;;;117.93;15.70;;;;;;;30.96;70.21;100809.06;5060857;28;71374;-39
2023/08/02 01:18:55;;;;;;;99.93;14.23;;;;;;;30.97;70.65;100813.41;5060055;28;66287;-38
2023/08/02 01:21:45;;;;;;;83.70;13.70;;;;;;;30.99;70.60;100813.22;5059298;28;71137;-38
2023/08/02 01:24:37;;;;;;;94.18;14.45;;;;;;;31.02;70.04;100808.16;5067273;28;67876;-38
2023/08/02 01:27:53;;;;;;;87.43;14.97;;;;;;;31.01;70.42;100811.94;5053874;28;71269;-38
2023/08/02 01:30:45;;;;;;;68.47;11.30;;;;;;;30.49;70.08;100730.09;5052407;28;67419;-40
2023/08/02 01:33:43;;;;;;;52.67;11.50;;;;;;;30.53;70.24;100738.59;5055341;28;71343;-38
2023/08/02 01:36:33;;;;;;;49.03;9.88;;;;;;;31.07;69.96;100821.88;5059460;28;67058;-38
2023/08/02 01:39:23;;;;;;;73.75;11.85;;;;;;;31.08;69.92;100828.94;5055544;28;71154;-39
2023/08/02 01:42:15;;;;;;;58.38;10.88;;;;;;;30.53;69.89;100733.16;5058958;28;67253;-39
2023/08/02 01:45:05;;;;;;;50.97;10.40;;;;;;;31.12;69.90;100841.00;5056822;28;70330;-38
2023/08/02 01:47:55;;;;;;;50.13;10.10;;;;;;;31.13;69.69;100831.81;5054117;28;66991;-39
2023/08/02 01:50:46;;;;;;;52.17;9.90;;;;;;;31.19;69.72;100846.34;5056226;28;69973;-38
2023/08/02 01:53:36;;;;;;;48.80;9.70;;;;;;;31.17;69.62;100846.59;5055319;28;67106;-38
2023/08/02 01:56:27;;;;;;;52.40;10.68;;;;;;;30.94;69.75;100801.16;5051844;28;71038;-39
2023/08/02 01:59:17;;;;;;;42.50;9.32;;;;;;;31.24;69.42;100849.22;5054340;28;67075;-40
2023/08/02 02:02:07;;;;;;;40.08;9.95;;;;;;;31.19;69.58;100823.84;5054641;28;71425;-38
2023/08/02 02:04:57;;;;;;;46.22;9.73;;;;;;;31.28;69.83;100838.75;5057585;28;66836;-38
2023/08/02 02:07:47;;;;;;;40.50;9.52;;;;;;;31.31;69.72;100843.72;5058867;28;69699;-39
2023/08/02 02:10:36;;;;;;;30.52;8.45;;;;;;;31.32;69.24;100846.22;5058847;28;67133;-39
2023/08/02 02:13:27;;;;;;;30.73;7.60;;;;;;;31.19;69.18;100813.84;5058437;28;70473;-40
2023/08/02 02:16:17;;;;;;;34.50;8.10;;;;;;;31.37;69.36;100835.56;5052113;28;67049;-39
2023/08/02 02:19:08;;;;;;;32.15;8.05;;;;;;;31.39;69.09;100851.59;5056364;28;70873;-39
2023/08/02 02:21:58;;;;;;;21.23;7.50;;;;;;;31.33;69.27;100836.19;5057976;28;67287;-39
2023/08/02 02:24:48;;;;;;;27.05;7.38;;;;;;;31.43;69.44;100849.28;5058314;28;71518;-41
2023/08/02 02:27:38;;;;;;;20.85;6.75;;;;;;;31.39;69.13;100852.41;5047096;28;66587;-39
2023/08/02 02:30:28;;;;;;;27.05;7.88;;;;;;;31.45;68.90;100850.69;5057456;28;70240;-39
2023/08/02 02:33:18;;;;;;;21.33;7.10;;;;;;;31.50;69.17;100850.03;5058308;28;66936;-40
2023/08/02 02:36:08;;;;;;;20.73;6.47;;;;;;;31.50;69.11;100848.13;5055007;28;71526;-38
2023/08/02 02:38:58;;;;;;;19.77;6.57;;;;;;;31.53;69.13;100842.25;5060225;28;66456;-39
2023/08/02 02:41:49;;;;;;;19.33;6.47;;;;;;;31.57;69.25;100856.22;5057328;28;71100;-37
2023/08/02 02:44:45;;;;;;;18.95;6.18;;;;;;;31.54;69.04;100843.13;5058368;28;66941;-39
2023/08/02 02:47:35;;;;;;;17.80;7.10;;;;;;;31.53;68.72;100842.25;5053552;28;71155;-39
2023/08/02 02:50:25;;;;;;;18.27;5.50;;;;;;;31.58;68.86;100850.56;5049113;28;67258;-39
2023/08/02 02:53:19;;;;;;;15.73;5.20;;;;;;;31.67;68.87;100858.38;5057143;28;71107;-38
2023/08/02 02:56:09;;;;;;;13.88;5.57;;;;;;;31.68;68.87;100863.59;5057472;28;67304;-40
2023/08/02 02:59:00;;;;;;;14.95;5.38;;;;;;;31.72;68.50;100864.78;5058526;28;70569;-38
2023/08/02 03:01:50;;;;;;;13.15;5.43;;;;;;;31.76;68.44;100873.28;5049515;28;67785;-38
2023/08/02 03:04:41;;;;;;;11.18;5.25;;;;;;;31.67;68.80;100844.81;5058496;28;70526;-39
2023/08/02 03:07:31;;;;;;;14.48;5.50;;;;;;;31.80;68.40;100869.09;5051661;28;66835;-39
2023/08/02 03:10:22;;;;;;;12.73;5.20;;;;;;;31.84;68.61;100870.28;5050830;28;70338;-39
2023/08/02 03:13:12;;;;;;;14.00;5.32;;;;;;;31.87;68.66;100869.00;5057077;28;66711;-39
2023/08/02 03:16:02;;;;;;;8.00;4.82;;;;;;;31.88;68.77;100859.81;5058340;28;71173;-40
2023/08/02 03:18:54;;;;;;;8.50;4.85;;;;;;;31.93;68.47;100868.97;5056335;28;66658;-38
2023/08/02 03:21:45;;;;;;;12.30;5.03;;;;;;;31.90;68.65;100853.09;5054239;28;71143;-39
2023/08/02 03:24:35;;;;;;;11.30;4.53;;;;;;;31.96;68.48;100852.22;5058013;28;66465;-39
2023/08/02 03:27:25;;;;;;;11.50;4.82;;;;;;;32.01;68.36;100851.50;5056643;28;71073;-38
2023/08/02 03:30:15;;;;;;;7.55;4.28;;;;;;;32.04;68.23;100848.38;5053136;28;67095;-38
2023/08/02 03:33:05;;;;;;;6.93;4.40;;;;;;;31.95;68.30;100831.56;5053347;28;70478;-38
2023/08/02 03:35:55;;;;;;;9.95;3.92;;;;;;;32.08;68.19;100848.72;5053461;28;66330;-39
2023/08/02 03:38:45;;;;;;;9.27;4.40;;;;;;;32.08;68.14;100848.72;5050378;28;71112;-38
2023/08/02 03:41:35;;;;;;;10.93;4.32;;;;;;;32.17;68.35;100853.59;5053858;28;66785;-39
2023/08/02 03:44:25;;;;;;;5.65;3.95;;;;;;;32.20;68.28;100850.41;5051998;28;71106;-39
2023/08/02 03:47:15;;;;;;;8.35;4.50;;;;;;;32.21;67.98;100843.13;5056591;28;66754;-40
2023/08/02 03:50:06;;;;;;;9.60;4.38;;;;;;;32.23;67.93;100852.69;5057532;28;70721;-39
2023/08/02 03:52:58;;;;;;;10.82;4.30;;;;;;;32.27;68.13;100861.19;5058585;28;66171;-40
2023/08/02 03:55:48;;;;;;;6.47;4.07;;;;;;;32.28;68.36;100850.09;5056697;28;70088;-39
2023/08/02 03:58:38;;;;;;;10.93;4.00;;;;;;;32.33;68.18;100857.56;5049845;28;67343;-39
2023/08/02 04:01:28;;;;;;;8.70;4.25;;;;;;;32.34;67.94;100858.38;5046841;28;70683;-39
2023/08/02 04:04:18;;;;;;;7.75;4.15;;;;;;;32.35;67.86;100855.44;5058467;28;67504;-41
2023/08/02 04:07:09;;;;;;;11.88;4.35;;;;;;;32.36;67.84;100851.66;5058519;28;70060;-39
2023/08/02 04:10:00;;;;;;;9.95;4.50;;;;;;;32.28;68.00;100847.38;5050990;28;66451;-39
2023/08/02 04:12:53;;;;;;;10.38;4.20;;;;;;;32.30;67.88;100840.91;5058380;28;71100;-40
2023/08/02 04:15:43;;;;;;;6.63;3.88;;;;;;;32.39;67.91;100867.50;5056617;28;67558;-41
2023/08/02 04:18:33;;;;;;;8.40;4.32;;;;;;;32.36;67.68;100850.84;5046238;28;71136;-42
2023/08/02 04:21:23;;;;;;;8.02;3.70;;;;;;;32.38;67.67;100849.56;5052011;28;66587;-39
2023/08/02 04:24:13;;;;;;;8.55;4.22;;;;;;;32.15;67.94;100800.59;5057005;28;71147;-40
2023/08/02 04:27:03;;;;;;;7.00;3.75;;;;;;;32.47;67.79;100852.78;5053570;28;67255;-39
2023/08/02 04:29:54;;;;;;;7.53;3.97;;;;;;;32.53;67.63;100857.28;5055379;28;71089;-39
2023/08/02 04:32:44;;;;;;;10.02;4.50;;;;;;;32.54;67.80;100860.81;5059532;28;66626;-39
2023/08/02 04:35:34;;;;;;;8.02;3.92;;;;;;;32.45;67.54;100833.97;5061209;28;70398;-39
2023/08/02 04:38:24;;;;;;;10.23;4.68;;;;;;;32.56;67.73;100867.69;5062574;28;67247;-39
2023/08/02 04:41:17;;;;;;;9.60;4.38;;;;;;;32.56;67.94;100856.00;5061895;28;71369;-40
2023/08/02 04:44:07;;;;;;;10.95;4.38;;;;;;;32.51;67.57;100837.69;5052569;28;66695;-38
2023/08/02 04:46:57;;;;;;;6.38;3.67;;;;;;;32.49;67.58;100832.50;5062467;28;70644;-38
2023/08/02 04:49:48;;;;;;;8.25;4.00;;;;;;;32.60;67.67;100846.34;5060328;28;66876;-39
2023/08/02 04:52:37;;;;;;;8.95;4.38;;;;;;;32.61;67.85;100832.50;5060730;28;70517;-40
2023/08/02 04:55:28;;;;;;;8.18;3.60;;;;;;;32.58;67.54;100832.16;5054123;28;67296;-40
2023/08/02 04:58:17;;;;;;;6.35;3.85;;;;;;;32.65;67.66;100843.72;5061627;28;71103;-42
2023/08/02 05:01:07;;;;;;;6.50;3.58;;;;;;;32.66;67.74;100829.94;5060790;28;67640;-39
2023/08/02 05:03:57;;;;;;;5.65;3.83;;;;;;;32.65;67.65;100816.56;5060395;28;71180;-41
2023/08/02 05:06:47;;;;;;;9.90;4.18;;;;;;;32.53;67.72;100804.88;5051521;28;67241;-40
2023/08/02 05:09:38;;;;;;;7.25;3.42;;;;;;;32.69;67.37;100817.78;5059524;28;70998;-39
2023/08/02 05:12:28;;;;;;;6.90;3.70;;;;;;;32.69;67.56;100806.91;5055525;28;67754;-41
2023/08/02 05:15:18;;;;;;;8.57;4.50;;;;;;;32.71;67.45;100800.19;5055127;28;71203;-40
2023/08/02 05:18:08;;;;;;;5.22;3.67;;;;;;;32.74;67.37;100793.47;5055392;28;66721;-39
2023/08/02 05:20:58;;;;;;;6.13;3.35;;;;;;;32.63;67.24;100769.84;5052822;28;71145;-39
2023/08/02 05:23:48;;;;;;;4.13;3.35;;;;;;;32.77;67.50;100784.00;5056372;28;66553;-39
2023/08/02 05:26:41;;;;;;;3.60;3.13;;;;;;;32.52;67.25;100732.63;5048306;28;71148;-39
2023/08/02 05:29:31;;;;;;;7.63;3.85;;;;;;;32.74;67.29;100752.72;5055914;28;66550;-39
2023/08/02 05:32:21;;;;;;;5.65;3.30;;;;;;;32.68;67.17;100729.19;5058051;28;71164;-40
2023/08/02 05:35:11;;;;;;;6.53;3.42;;;;;;;32.82;66.99;100737.94;5060101;28;67300;-41
2023/08/02 05:38:02;;;;;;;5.93;3.78;;;;;;;32.87;67.10;100746.19;5056068;28;71182;-40
2023/08/02 05:40:52;;;;;;;5.60;3.92;;;;;;;32.86;66.97;100731.78;5050297;28;67257;-42
2023/08/02 05:43:44;;;;;;;7.18;3.60;;;;;;;32.90;67.24;100732.13;5047568;28;70509;-39
2023/08/02 05:46:34;;;;;;;;;;;;;;;32.60;68.10;100726.84;5058482;28;66250;-40
2023/08/02 05:49:24;;;;;;;4.65;3.42;;;;;;;32.86;66.96;100715.50;5057231;28;71244;-42
2023/08/02 05:52:15;;;;;;;5.63;3.47;;;;;;;32.74;66.95;100679.38;5059662;28;66413;-40
2023/08/02 05:55:05;;;;;;;6.03;4.00;;;;;;;32.96;66.87;100708.63;5056680;28;69951;-40
2023/08/02 05:57:55;;;;;;;7.03;4.20;;;;;;;32.98;66.85;100703.78;5046869;28;67254;-42
2023/08/02 06:00:45;;;;;;;5.25;3.42;;;;;;;33.00;66.81;100693.53;5050544;28;70295;-41
2023/08/02 06:03:35;;;;;;;7.82;3.90;;;;;;;32.92;66.60;100673.78;5046576;28;66191;-41
2023/08/02 06:06:26;;;;;;;5.95;4.22;;;;;;;33.05;66.70;100697.19;5044967;28;70457;-40
2023/08/02 06:09:16;;;;;;;4.70;4.18;;;;;;;33.07;66.62;100688.78;5051449;28;66561;-40
2023/08/02 06:12:07;;;;;;;14.27;5.20;;;;;;;33.08;66.45;100685.03;5051371;28;71129;-40
2023/08/02 06:14:57;;;;;;;5.13;4.10;;;;;;;33.04;66.53;100662.09;5052740;28;66902;-43
2023/08/02 06:17:47;;;;;;;9.07;4.50;;;;;;;33.12;66.45;100664.44;5049810;28;71075;-41
2023/08/02 06:20:37;;;;;;;8.90;4.70;;;;;;;33.16;66.35;100660.19;5040963;28;67240;-41
2023/08/02 06:23:27;;;;;;;5.38;4.10;;;;;;;33.15;66.52;100650.34;5051572;28;71100;-40
2023/08/02 06:26:19;;;;;;;11.05;4.70;;;;;;;32.69;66.40;100579.59;5050532;28;67426;-40
2023/08/02 06:29:11;;;;;;;;;;;;;;;32.90;67.00;100645.19;5047428;28;71169;-41
2023/08/02 06:32:01;;;;;;;6.57;4.30;;;;;;;33.03;66.38;100617.78;5057907;28;67647;-41
2023/08/02 06:34:51;;;;;;;11.27;5.05;;;;;;;33.11;66.27;100620.13;5058071;28;70519;-41
2023/08/02 06:37:41;;;;;;;14.27;5.47;;;;;;;33.16;66.39;100622.13;5054040;28;66637;-40
2023/08/02 06:40:31;;;;;;;9.20;4.95;;;;;;;33.28;66.15;100632.94;5051242;28;70496;-39
2023/08/02 06:43:21;;;;;;;6.95;5.32;;;;;;;33.30;65.96;100628.94;5048506;28;66752;-39
2023/08/02 06:46:11;;;;;;;10.57;5.60;;;;;;;33.20;66.18;100601.53;5057848;28;70466;-39
2023/08/02 06:49:01;;;;;;;7.63;5.40;;;;;;;33.24;66.14;100600.00;5057086;28;67293;-40
2023/08/02 06:51:51;;;;;;;12.52;6.15;;;;;;;33.31;65.88;100608.81;5056427;28;71299;-40
2023/08/02 06:54:41;;;;;;;11.77;5.10;;;;;;;33.30;65.66;100598.19;5058394;28;66927;-41
2023/08/02 06:57:32;;;;;;;6.50;5.68;;;;;;;33.40;65.70;100589.38;5059732;28;70366;-40
2023/08/02 07:00:22;;;;;;;8.77;5.53;;;;;;;33.42;65.57;100592.69;5049063;28;67219;-38
2023/08/02 07:03:12;;;;;;;6.75;5.47;;;;;;;33.44;65.27;100591.38;5057624;28;70406;-41
2023/08/02 07:06:11;;;;;;;9.35;6.10;;;;;;;33.46;65.32;100604.72;5057446;28;67280;-42
2023/08/02 07:09:01;;;;;;;11.02;7.43;;;;;;;33.48;65.53;100597.16;5058729;28;71211;-41
2023/08/02 07:11:51;;;;;;;13.20;7.10;;;;;;;33.52;65.10;100582.88;5059556;28;67227;-39
2023/08/02 07:14:41;;;;;;;12.48;6.93;;;;;;;33.54;65.15;100579.88;5048891;28;71128;-39
2023/08/02 07:17:31;;;;;;;10.00;6.75;;;;;;;33.42;65.10;100566.31;5059379;28;66826;-41
2023/08/02 07:20:22;;;;;;;10.23;6.78;;;;;;;33.55;65.08;100573.38;5058994;28;70430;-41
2023/08/02 07:23:12;;;;;;;10.27;6.72;;;;;;;33.59;64.99;100574.53;5058223;28;67456;-43
2023/08/02 07:26:04;;;;;;;7.28;6.63;;;;;;;33.63;64.98;100567.53;5047488;28;71108;-40
2023/08/02 07:28:54;;;;;;;11.15;6.85;;;;;;;33.63;64.61;100551.22;5060091;28;67353;-40
2023/08/02 07:31:44;;;;;;;13.60;6.80;;;;;;;33.67;64.52;100560.53;5056885;28;71098;-41
2023/08/02 07:34:34;;;;;;;14.30;7.32;;;;;;;33.65;64.47;100554.50;5050508;28;67440;-39
2023/08/02 07:37:24;;;;;;;11.18;6.80;;;;;;;33.52;64.37;100527.63;5056196;28;71050;-39
2023/08/02 07:40:15;;;;;;;9.60;6.78;;;;;;;33.69;64.57;100547.50;5055780;28;66916;-39
2023/08/02 07:43:05;;;;;;;9.70;7.00;;;;;;;33.33;64.03;100476.19;5051567;28;70968;-39
2023/08/02 07:45:55;;;;;;;15.18;7.38;;;;;;;33.37;63.93;100462.91;5069421;28;67272;-40
2023/08/02 07:48:45;;;;;;;11.38;7.15;;;;;;;33.75;64.09;100530.19;5058645;28;70330;-38
2023/08/02 07:51:35;;;;;;;12.27;7.07;;;;;;;33.74;63.83;100520.41;5052272;28;66861;-39
2023/08/02 07:54:25;;;;;;;14.27;7.28;;;;;;;33.77;63.89;100519.06;5051493;28;70358;-39
2023/08/02 07:57:32;;;;;;;139.60;17.63;;;;;;;33.73;63.83;100518.72;5052553;28;67305;-39
2023/08/02 08:00:23;;;;;;;63.38;11.05;;;;;;;33.79;63.92;100500.59;5057987;28;70673;-39
2023/08/02 08:03:14;;;;;;;68.68;12.15;;;;;;;33.43;63.46;100450.22;5056869;28;66613;-39
2023/08/02 08:06:15;;;;;;;59.65;11.23;;;;;;;33.77;63.73;100509.00;5057693;28;71134;-40
2023/08/02 08:09:05;;;;;;;54.55;11.40;;;;;;;33.78;63.38;100507.94;5056008;28;66429;-39
2023/08/02 08:11:55;;;;;;;58.75;12.07;;;;;;;33.77;63.72;100481.81;5055582;28;70859;-39
2023/08/02 08:14:45;;;;;;;53.42;10.55;;;;;;;33.84;63.82;100502.56;5057457;28;67237;-40
2023/08/02 08:17:35;;;;;;;38.95;10.05;;;;;;;33.86;63.72;100505.88;5060483;28;71100;-39
2023/08/02 08:20:25;;;;;;;61.17;10.88;;;;;;;33.74;63.48;100487.75;5058740;28;66727;-41
2023/08/02 08:23:16;;;;;;;54.88;10.52;;;;;;;33.74;63.21;100482.31;5060350;28;71179;-39
2023/08/02 08:26:06;;;;;;;63.92;12.35;;;;;;;33.88;63.29;100509.16;5051177;28;67328;-39
2023/08/02 08:28:56;;;;;;;56.15;11.00;;;;;;;33.88;63.24;100498.25;5058485;28;71068;-39
2023/08/02 08:31:46;;;;;;;60.00;11.07;;;;;;;33.80;63.37;100486.75;5054229;28;67426;-40
2023/08/02 08:34:37;;;;;;;74.82;11.63;;;;;;;33.83;62.93;100495.50;5059675;28;70481;-40
2023/08/02 08:37:27;;;;;;;63.08;11.85;;;;;;;33.91;63.16;100495.88;5060584;28;67307;-39
2023/08/02 08:40:19;;;;;;;60.55;12.63;;;;;;;33.40;62.81;100424.34;5059751;28;70321;-39
2023/08/02 08:43:13;;;;;;;79.68;14.55;;;;;;;33.85;63.32;100496.03;5060356;28;43101;-39
2023/08/02 08:46:03;;;;;;;63.90;13.50;;;;;;;33.88;63.01;100514.59;5061246;28;71131;-38
2023/08/02 08:48:54;;;;;;;76.05;13.52;;;;;;;33.78;63.37;100486.16;5054445;28;67370;-39
2023/08/02 08:51:49;;;;;;;62.40;13.05;;;;;;;33.82;63.07;100486.47;5060105;28;71361;-40
2023/08/02 08:54:41;;;;;;;59.83;13.57;;;;;;;33.43;62.77;100420.31;5058817;28;66603;-40
2023/08/02 08:57:32;;;;;;;47.20;12.05;;;;;;;33.92;62.68;100510.31;5058719;28;70412;-38
2023/08/02 09:00:23;;;;;;;;;;;;;;;33.64;63.35;100512.06;5054155;28;67359;-38
2023/08/02 09:03:14;;;;;;;55.08;12.48;;;;;;;33.89;62.84;100510.81;5050466;28;70526;-40
2023/08/02 09:06:05;;;;;;;69.73;14.70;;;;;;;33.91;63.01;100503.22;5060318;28;67247;-40
2023/08/02 09:08:55;;;;;;;66.85;14.13;;;;;;;33.48;62.61;100428.56;5060679;28;70336;-39
2023/08/02 09:11:46;;;;;;;75.40;15.27;;;;;;;33.91;63.08;100500.50;5060143;28;67190;-40
2023/08/02 09:14:36;;;;;;;76.83;14.60;;;;;;;33.89;62.99;100499.94;5051913;28;70070;-39
2023/08/02 09:17:26;;;;;;;66.15;15.13;;;;;;;33.81;62.60;100493.81;5061831;28;66582;-39
2023/08/02 09:20:18;;;;;;;48.65;14.10;;;;;;;33.89;63.29;100505.38;5059549;28;71043;-39
2023/08/02 09:23:16;;;;;;;;;;;;;;;33.62;63.53;100505.22;5060270;28;67496;-41
2023/08/02 09:26:18;;;;;;;55.88;14.18;;;;;;;33.25;62.89;100408.66;5053830;28;71024;-40
2023/08/02 09:29:09;;;;;;;71.15;17.63;;;;;;;33.83;63.24;100503.66;5060187;28;67015;-41
2023/08/02 09:31:59;;;;;;;;;;;;;;;33.60;63.91;100513.66;5056062;28;70668;-39
2023/08/02 09:35:00;;;;;;;45.92;13.40;;;;;;;33.19;63.56;100420.50;5060329;28;66815;-38
2023/08/02 09:37:51;;;;;;;42.50;12.30;;;;;;;33.75;63.32;100505.72;5052545;28;70704;-40
2023/08/02 09:40:42;;;;;;;49.17;13.35;;;;;;;33.78;63.66;100510.66;5057070;28;67224;-39
2023/08/02 09:43:55;;;;;;;38.70;12.32;;;;;;;33.77;63.26;100508.19;5057646;28;71251;-41
2023/08/02 09:46:46;;;;;;;37.00;12.32;;;;;;;33.81;63.40;100520.22;5060006;28;66528;-40
2023/08/02 09:49:36;;;;;;;33.90;12.63;;;;;;;33.81;63.41;100542.78;5052817;28;71100;-42
2023/08/02 09:52:27;;;;;;;31.65;12.38;;;;;;;33.77;63.38;100557.97;5058601;28;67344;-41
2023/08/02 09:55:17;;;;;;;35.58;11.50;;;;;;;33.77;63.28;100578.94;5057950;28;71137;-40
2023/08/02 09:58:08;;;;;;;30.25;11.55;;;;;;;33.68;63.31;100585.81;5057034;28;66451;-40
2023/08/02 10:01:01;;;;;;;37.53;12.10;;;;;;;33.69;63.02;100601.09;5055726;28;71209;-40
2023/08/02 10:03:56;;;;;;;33.80;11.60;;;;;;;33.51;63.13;100580.34;5053058;28;67722;-41
2023/08/02 10:07:12;;;;;;;35.88;11.93;;;;;;;33.54;63.19;100613.38;5059053;28;71489;-39
2023/08/02 10:10:18;;;;;;;29.20;12.73;;;;;;;33.61;63.26;100617.81;5053428;28;66814;-39
2023/08/02 10:13:22;;;;;;;22.55;12.18;;;;;;;32.93;63.39;100504.28;5050239;28;70326;-40
2023/08/02 10:16:15;;;;;;;24.70;11.90;;;;;;;33.22;63.44;100545.03;5039041;28;66617;-39
2023/08/02 10:19:06;;;;;;;22.77;11.38;;;;;;;33.61;63.89;100599.59;5059538;28;70727;-41
2023/08/02 10:22:01;;;;;;;21.42;11.32;;;;;;;33.56;64.00;100585.91;5059710;28;66631;-39
2023/08/02 10:24:52;;;;;;;23.65;11.52;;;;;;;33.43;63.91;100561.72;5045910;28;71329;-40
2023/08/02 10:27:43;;;;;;;28.08;11.32;;;;;;;33.51;64.08;100586.59;5053132;28;66706;-39
2023/08/02 10:30:34;;;;;;;20.10;10.40;;;;;;;33.31;64.07;100554.44;5057177;28;71035;-39
2023/08/02 10:33:27;;;;;;;14.52;10.00;;;;;;;33.47;63.86;100573.75;5058969;28;67561;-40
2023/08/02 10:36:18;;;;;;;23.40;10.43;;;;;;;33.07;63.96;100526.59;5050649;28;71173;-41
2023/08/02 10:39:08;;;;;;;20.75;11.13;;;;;;;33.40;64.05;100589.38;5059295;28;68140;-40
2023/08/02 10:41:58;;;;;;;16.27;10.27;;;;;;;33.41;64.39;100599.22;5058811;28;70635;-40
2023/08/02 10:45:13;;;;;;;28.20;11.02;;;;;;;33.31;64.58;100602.56;5057857;28;66750;-40
2023/08/02 10:48:28;;;;;;;27.67;10.98;;;;;;;33.29;64.74;100599.25;5056413;28;71051;-41
2023/08/02 10:51:38;;;;;;;23.05;10.75;;;;;;;33.29;64.59;100605.53;5051469;28;66601;-40
2023/08/02 10:54:28;;;;;;;27.70;10.80;;;;;;;33.38;64.12;100605.97;5053376;28;71196;-41
2023/08/02 10:57:22;;;;;;;16.48;10.57;;;;;;;33.35;64.00;100599.13;5052722;28;66703;-40
2023/08/02 11:00:23;;;;;;;19.10;10.93;;;;;;;32.82;64.57;100526.03;5055161;28;71280;-40
2023/08/02 11:03:29;;;;;;;17.52;10.40;;;;;;;32.75;64.97;100545.22;5057639;28;67734;-40
2023/08/02 11:06:29;;;;;;;16.48;11.05;;;;;;;33.24;64.78;100629.06;5056887;28;71341;-39
2023/08/02 11:09:33;;;;;;;20.08;11.90;;;;;;;33.10;64.97;100617.66;5057603;28;66572;-39
2023/08/02 11:12:23;;;;;;;16.13;10.43;;;;;;;33.11;64.63;100624.75;5056492;28;70074;-40
2023/08/02 11:15:16;;;;;;;18.80;10.88;;;;;;;33.17;64.53;100644.69;5057143;28;66902;-40
2023/08/02 11:18:07;;;;;;;14.82;10.80;;;;;;;33.22;64.54;100667.38;5049360;28;71167;-40
2023/08/02 11:21:08;;;;;;;;;;;;;;;32.92;65.74;100660.19;5046945;28;67048;-38
2023/08/02 11:24:03;;;;;;;15.27;10.45;;;;;;;32.60;64.75;100555.78;5058245;28;70737;-40
2023/08/02 11:26:54;;;;;;;15.07;10.02;;;;;;;33.12;64.67;100631.81;5057339;28;66609;-41
2023/08/02 11:30:06;;;;;;;12.85;9.52;;;;;;;32.95;65.01;100620.84;5049699;28;71048;-40
2023/08/02 11:32:57;;;;;;;12.75;9.35;;;;;;;33.12;64.80;100639.97;5038031;28;66348;-39
2023/08/02 11:35:52;;;;;;;13.13;9.20;;;;;;;32.78;65.09;100593.63;5039466;28;71139;-42
2023/08/02 11:38:43;;;;;;;10.00;8.80;;;;;;;33.10;65.10;100656.53;5053698;28;67343;-40
2023/08/02 11:41:33;;;;;;;12.65;9.98;;;;;;;33.06;64.81;100654.53;5051128;28;71126;-39
2023/08/02 11:44:23;;;;;;;17.83;9.48;;;;;;;32.91;64.98;100636.81;5047330;28;67016;-40
2023/08/02 11:47:14;;;;;;;10.75;9.18;;;;;;;33.04;64.68;100656.66;5054323;28;71101;-41
2023/08/02 11:50:04;;;;;;;13.35;9.52;;;;;;;33.04;65.10;100656.66;5041970;28;67318;-40
2023/08/02 11:53:04;;;;;;;13.65;10.35;;;;;;;32.96;65.33;100659.72;5053388;28;70768;-42
2023/08/02 11:55:55;;;;;;;11.95;9.15;;;;;;;32.94;65.10;100651.81;5054173;28;66693;-43
2023/08/02 11:58:46;;;;;;;12.27;8.80;;;;;;;32.59;64.99;100611.94;5052522;28;71624;-40
2023/08/02 12:01:41;;;;;;;20.93;10.83;;;;;;;32.92;65.24;100665.63;5046056;28;66502;-42
2023/08/02 12:04:41;;;;;;;13.52;9.77;;;;;;;32.86;65.50;100669.31;5049246;28;71036;-42
2023/08/02 12:07:33;;;;;;;16.88;10.90;;;;;;;31.93;65.33;100521.72;5050256;28;67270;-42
2023/08/02 12:10:28;;;;;;;15.15;10.48;;;;;;;32.88;65.30;100691.63;5050879;28;71195;-40
2023/08/02 12:13:19;;;;;;;13.50;10.60;;;;;;;32.74;65.41;100679.38;5055797;28;66602;-40
2023/08/02 12:16:11;;;;;;;11.40;10.05;;;;;;;32.84;65.20;100706.75;5056271;28;69802;-40
2023/08/02 12:19:01;;;;;;;19.73;10.48;;;;;;;32.78;65.38;100702.28;5049245;28;66602;-39
2023/08/02 12:22:00;;;;;;;18.75;9.93;;;;;;;32.74;65.35;100711.16;5054326;28;71082;-40
2023/08/02 12:25:04;;;;;;;18.25;10.85;;;;;;;32.71;65.72;100709.72;5053075;28;67231;-40
2023/08/02 12:28:08;;;;;;;19.45;10.55;;;;;;;32.26;65.75;100642.38;5054268;28;70483;-40
2023/08/02 12:31:05;;;;;;;20.08;10.50;;;;;;;32.72;65.64;100709.47;5053741;28;67285;-41
2023/08/02 12:33:56;;;;;;;19.60;11.95;;;;;;;32.73;66.08;100721.16;5054905;28;71327;-42
2023/08/02 12:36:49;;;;;;;21.58;11.25;;;;;;;32.72;65.51;100708.66;5051543;28;66596;-42
2023/08/02 12:39:39;;;;;;;19.77;13.82;;;;;;;32.70;65.57;100703.44;5052778;28;71058;-41
2023/08/02 12:42:29;;;;;;;23.75;13.45;;;;;;;32.69;65.47;100717.28;5046530;28;65953;-42
2023/08/02 12:45:26;;;;;;;31.52;12.15;;;;;;;32.44;67.33;100726.44;5053457;28;71111;-40
2023/08/02 12:48:16;;;;;;;66.45;14.88;;;;;;;32.21;69.15;100718.28;5051634;28;66933;-40
2023/08/02 12:51:06;;;;;;;161.63;22.42;;;;;;;32.22;69.08;100742.47;5055600;28;71107;-39
2023/08/02 12:53:57;;;;;;;139.63;23.10;;;;;;;32.10;70.74;100749.75;5061607;28;66625;-38
2023/08/02 12:56:47;;;;;;;74.75;20.95;;;;;;;32.00;71.73;100755.72;5050490;28;71121;-40
2023/08/02 12:59:37;;;;;;;84.55;22.92;;;;;;;31.86;72.36;100753.41;5057475;28;67256;-44
2023/08/02 13:02:28;;;;;;;64.63;20.15;;;;;;;31.80;70.01;100771.44;5054718;28;71518;-41
2023/08/02 13:05:18;;;;;;;52.75;19.23;;;;;;;31.68;68.52;100767.81;5060128;28;67437;-41
2023/08/02 13:08:09;;;;;;;48.50;19.58;;;;;;;31.57;67.84;100762.13;5058919;28;70079;-43
2023/08/02 13:11:01;;;;;;;46.15;17.65;;;;;;;31.40;67.25;100766.53;5055131;28;67270;-42